Time;durP1;ratioP1;P1;durP2;ratioP2;P2;SDS_P1;SDS_P2;PMS_P1;PMS_P2;Temp;Humidity;BMP_temperature;BMP_pressure;BME280_temperature;BME280_humidity;BME280_pressure;Samples;Min_cycle;Max_cycle;Signal;HPM_P1;HPM_P2
2024/04/04 00:01:53;;;;;;;6.00;1.10;;;12.70;99.90;;;;;;5050099;28;20503;-70
2024/04/04 00:04:19;;;;;;;10.97;1.80;;;12.70;99.90;;;;;;5049681;28;20489;-70
2024/04/04 00:06:46;;;;;;;7.00;1.10;;;12.80;99.90;;;;;;5048130;28;20472;-70
2024/04/04 00:09:13;;;;;;;9.90;1.20;;;12.80;99.90;;;;;;5048520;28;20818;-70
2024/04/04 00:11:43;;;;;;;9.47;1.33;;;12.80;99.90;;;;;;5045392;28;20990;-70
2024/04/04 00:14:09;;;;;;;7.50;1.00;;;12.70;99.90;;;;;;5046578;28;20446;-70
2024/04/04 00:16:36;;;;;;;6.80;0.97;;;12.80;99.90;;;;;;5046437;28;20810;-70
2024/04/04 00:19:02;;;;;;;7.40;1.10;;;12.80;99.90;;;;;;5039405;28;20475;-70
2024/04/04 00:21:29;;;;;;;6.30;1.00;;;12.80;99.90;;;;;;5046236;28;20450;-70
2024/04/04 00:23:56;;;;;;;6.30;0.90;;;12.80;99.90;;;;;;5062798;28;20484;-70
2024/04/04 00:26:24;;;;;;;8.57;1.20;;;12.70;99.90;;;;;;5050385;28;20816;-71
2024/04/04 00:28:51;;;;;;;6.47;0.83;;;12.70;99.90;;;;;;5053716;28;20463;-70
2024/04/04 00:31:18;;;;;;;6.67;0.80;;;12.70;99.90;;;;;;5049192;28;20465;-71
2024/04/04 00:33:45;;;;;;;7.63;1.00;;;12.60;99.90;;;;;;5048880;28;20454;-70
2024/04/04 00:36:12;;;;;;;6.30;0.97;;;12.60;99.90;;;;;;5048904;28;20835;-70
2024/04/04 00:38:38;;;;;;;7.70;1.30;;;12.60;99.90;;;;;;5048193;28;20535;-70
2024/04/04 00:41:05;;;;;;;9.17;1.40;;;12.70;99.90;;;;;;5046110;28;20451;-71
2024/04/04 00:43:31;;;;;;;7.30;1.40;;;12.70;99.90;;;;;;5049887;28;20447;-69
2024/04/04 00:45:59;;;;;;;9.20;1.23;;;12.60;99.90;;;;;;5049829;28;20482;-69
2024/04/04 00:48:26;;;;;;;6.63;1.00;;;12.60;99.90;;;;;;5049182;28;20457;-69
2024/04/04 00:50:54;;;;;;;7.60;0.90;;;12.60;99.90;;;;;;5048945;28;20443;-69
2024/04/04 00:53:23;;;;;;;6.93;1.10;;;12.40;99.90;;;;;;5049574;28;20516;-71
2024/04/04 00:55:51;;;;;;;10.73;1.30;;;12.30;99.90;;;;;;5049460;28;20521;-69
2024/04/04 00:58:18;;;;;;;6.20;1.00;;;12.20;99.90;;;;;;5064642;28;20870;-68
2024/04/04 01:00:45;;;;;;;6.80;1.13;;;12.00;99.90;;;;;;5049463;28;20442;-69
2024/04/04 01:03:12;;;;;;;8.47;1.57;;;11.90;99.90;;;;;;5049867;28;20458;-69
2024/04/04 01:05:39;;;;;;;9.00;1.23;;;11.80;99.90;;;;;;5049175;28;20477;-69
2024/04/04 01:08:07;;;;;;;7.63;1.30;;;11.80;99.90;;;;;;5050001;28;21219;-69
2024/04/04 01:10:34;;;;;;;8.20;1.30;;;11.70;99.90;;;;;;5049787;28;20454;-69
2024/04/04 01:13:00;;;;;;;6.73;0.90;;;11.50;99.90;;;;;;5057660;28;21216;-69
2024/04/04 01:15:27;;;;;;;8.20;1.87;;;11.40;99.90;;;;;;5049686;28;20481;-69
2024/04/04 01:17:53;;;;;;;7.70;1.10;;;11.40;99.90;;;;;;5048505;28;20448;-70
2024/04/04 01:20:21;;;;;;;7.77;0.80;;;11.40;99.90;;;;;;5049539;28;20478;-69
2024/04/04 01:22:48;;;;;;;8.43;1.00;;;11.30;99.90;;;;;;5049297;28;20460;-70
2024/04/04 01:25:17;;;;;;;7.23;1.10;;;11.20;99.90;;;;;;5048772;28;20470;-70
2024/04/04 01:27:43;;;;;;;6.67;1.30;;;11.00;99.90;;;;;;5053391;28;20518;-69
2024/04/04 01:30:10;;;;;;;7.93;1.23;;;10.90;99.90;;;;;;5049952;28;20447;-69
2024/04/04 01:32:36;;;;;;;6.63;0.80;;;10.90;99.90;;;;;;5046656;28;20442;-69
2024/04/04 01:35:04;;;;;;;6.10;0.90;;;11.00;99.90;;;;;;5066227;28;21239;-69
2024/04/04 01:37:30;;;;;;;8.57;1.20;;;11.30;99.90;;;;;;5049397;28;20452;-69
2024/04/04 01:39:57;;;;;;;7.00;1.30;;;11.30;99.90;;;;;;5048022;28;20486;-69
2024/04/04 01:42:24;;;;;;;7.67;0.90;;;11.30;99.90;;;;;;5049792;28;20441;-69
2024/04/04 01:44:51;;;;;;;6.53;1.10;;;11.40;99.90;;;;;;5065435;28;20475;-68
2024/04/04 01:47:17;;;;;;;7.13;1.10;;;11.50;99.90;;;;;;5051346;28;20446;-69
2024/04/04 01:49:45;;;;;;;7.23;1.00;;;11.70;99.90;;;;;;5070550;28;20445;-70
2024/04/04 01:52:11;;;;;;;6.20;0.83;;;11.70;99.90;;;;;;5053832;28;20443;-69
2024/04/04 01:54:38;;;;;;;7.00;1.13;;;11.60;99.90;;;;;;5053388;28;20549;-69
2024/04/04 01:57:04;;;;;;;6.10;1.03;;;11.70;99.90;;;;;;5064892;28;20523;-70
2024/04/04 01:59:32;;;;;;;8.83;1.00;;;11.80;99.90;;;;;;5052342;28;20473;-69
2024/04/04 02:01:58;;;;;;;6.30;0.90;;;11.80;99.90;;;;;;5052555;28;20461;-69
2024/04/04 02:04:25;;;;;;;8.03;1.17;;;11.90;99.90;;;;;;5053716;28;20485;-68
2024/04/04 02:06:51;;;;;;;6.33;0.80;;;11.90;99.90;;;;;;5070061;28;20435;-68
2024/04/04 02:09:20;;;;;;;8.90;1.30;;;11.90;99.90;;;;;;5053860;28;20541;-71
2024/04/04 02:11:46;;;;;;;7.93;1.20;;;12.00;99.90;;;;;;5070036;28;20513;-69
2024/04/04 02:14:13;;;;;;;8.20;1.90;;;11.90;99.90;;;;;;5052690;28;20458;-70
2024/04/04 02:16:41;;;;;;;6.70;1.03;;;12.00;99.90;;;;;;5053080;28;20455;-70
2024/04/04 02:19:08;;;;;;;6.37;1.00;;;12.00;99.90;;;;;;5053132;28;20482;-71
2024/04/04 02:21:34;;;;;;;7.47;1.00;;;12.00;99.90;;;;;;5052911;28;20442;-69
2024/04/04 02:24:01;;;;;;;9.20;0.90;;;11.90;99.90;;;;;;5052313;28;20439;-69
2024/04/04 02:26:27;;;;;;;6.50;0.90;;;11.80;99.90;;;;;;5051889;28;20464;-69
2024/04/04 02:28:54;;;;;;;6.80;1.10;;;11.70;99.90;;;;;;5051845;28;20451;-69
2024/04/04 02:31:20;;;;;;;7.80;1.60;;;11.70;99.90;;;;;;5052149;28;20450;-69
2024/04/04 02:33:49;;;;;;;6.50;1.13;;;11.70;99.90;;;;;;5052476;28;20451;-69
2024/04/04 02:36:15;;;;;;;6.73;1.00;;;11.70;99.90;;;;;;5052483;28;20517;-69
2024/04/04 02:38:42;;;;;;;8.33;1.13;;;11.60;99.90;;;;;;5052672;28;20865;-69
2024/04/04 02:41:08;;;;;;;6.93;1.07;;;11.60;99.90;;;;;;5053299;28;20458;-69
2024/04/04 02:43:35;;;;;;;7.10;1.20;;;11.50;99.90;;;;;;5052080;28;20450;-69
2024/04/04 02:46:02;;;;;;;7.47;1.23;;;11.50;99.90;;;;;;5051637;28;20474;-69
2024/04/04 02:48:29;;;;;;;7.00;1.10;;;11.50;99.90;;;;;;5052077;28;20976;-70
2024/04/04 02:50:57;;;;;;;8.23;1.00;;;11.50;99.90;;;;;;5048141;28;20490;-70
2024/04/04 02:53:25;;;;;;;6.97;1.07;;;11.50;99.90;;;;;;5051952;28;20462;-69
2024/04/04 02:55:55;;;;;;;7.13;1.00;;;11.50;99.90;;;;;;5052013;28;20903;-70
2024/04/04 02:58:23;;;;;;;10.90;1.13;;;11.60;99.90;;;;;;5051851;28;20447;-70
2024/04/04 03:00:49;;;;;;;7.17;0.97;;;11.70;99.90;;;;;;5051824;28;20450;-68
2024/04/04 03:03:16;;;;;;;7.37;1.20;;;11.90;99.90;;;;;;5066183;28;20454;-70
2024/04/04 03:05:43;;;;;;;6.73;0.90;;;11.80;99.90;;;;;;5038845;28;20475;-69
2024/04/04 03:08:12;;;;;;;8.00;1.00;;;12.00;99.90;;;;;;5049104;28;20455;-69
2024/04/04 03:10:39;;;;;;;6.83;0.87;;;12.00;99.90;;;;;;5052196;28;20442;-69
2024/04/04 03:13:07;;;;;;;6.40;1.00;;;12.00;99.90;;;;;;5048231;28;20446;-69
2024/04/04 03:15:33;;;;;;;8.43;0.97;;;12.10;99.90;;;;;;5051060;28;21234;-69
2024/04/04 03:18:01;;;;;;;6.30;0.97;;;12.00;99.90;;;;;;5051509;28;20442;-69
2024/04/04 03:20:27;;;;;;;7.77;1.00;;;12.00;99.90;;;;;;5068509;28;20489;-68
2024/04/04 03:22:56;;;;;;;9.07;1.07;;;12.00;99.90;;;;;;5051661;28;20438;-69
2024/04/04 03:25:24;;;;;;;6.83;1.00;;;12.00;99.90;;;;;;5051878;28;20474;-68
2024/04/04 03:27:51;;;;;;;6.73;1.43;;;11.90;99.90;;;;;;5051808;28;20812;-69
2024/04/04 03:30:17;;;;;;;7.90;1.00;;;12.00;99.90;;;;;;5051385;28;20978;-71
2024/04/04 03:32:44;;;;;;;8.97;1.00;;;12.00;99.90;;;;;;5051381;28;21123;-69
2024/04/04 03:35:10;;;;;;;7.67;1.27;;;12.00;99.90;;;;;;5050457;28;20474;-70
2024/04/04 03:37:37;;;;;;;6.63;1.23;;;11.90;99.90;;;;;;5051463;28;20451;-68
2024/04/04 03:40:06;;;;;;;7.20;0.93;;;11.90;99.90;;;;;;5051393;28;20513;-70
2024/04/04 03:42:34;;;;;;;6.40;1.00;;;11.90;99.90;;;;;;5051316;28;21013;-70
2024/04/04 03:45:02;;;;;;;6.60;0.87;;;11.90;99.90;;;;;;5048012;28;21796;-69
2024/04/04 03:47:28;;;;;;;6.97;1.20;;;11.90;99.90;;;;;;5053232;28;20453;-70
2024/04/04 03:49:55;;;;;;;7.20;1.27;;;12.00;99.90;;;;;;5054412;28;20483;-70
2024/04/04 03:52:21;;;;;;;6.00;0.80;;;11.90;99.90;;;;;;5041633;28;20824;-70
2024/04/04 03:54:48;;;;;;;6.70;0.90;;;11.80;99.90;;;;;;5044949;28;20465;-67
2024/04/04 03:57:14;;;;;;;6.90;0.90;;;11.90;99.90;;;;;;5068113;28;20446;-69
2024/04/04 03:59:42;;;;;;;6.23;1.03;;;11.80;99.90;;;;;;5051347;28;20470;-69
2024/04/04 04:02:08;;;;;;;7.80;1.03;;;11.70;99.90;;;;;;5047717;28;20454;-69
2024/04/04 04:04:35;;;;;;;6.90;0.97;;;11.70;99.90;;;;;;5067465;28;20522;-70
2024/04/04 04:07:01;;;;;;;8.43;1.10;;;11.70;99.90;;;;;;5050449;28;20453;-69
2024/04/04 04:09:29;;;;;;;6.70;0.90;;;11.60;99.90;;;;;;5049808;28;20461;-71
2024/04/04 04:11:55;;;;;;;6.90;0.93;;;11.50;99.90;;;;;;5050599;28;20447;-68
2024/04/04 04:14:22;;;;;;;6.70;0.80;;;11.40;99.90;;;;;;5050770;28;20490;-68
2024/04/04 04:16:49;;;;;;;5.70;0.70;;;11.40;99.90;;;;;;5067665;28;20460;-68
2024/04/04 04:19:16;;;;;;;6.33;0.70;;;11.40;99.90;;;;;;5051253;28;20511;-68
2024/04/04 04:21:42;;;;;;;6.90;0.80;;;11.40;99.90;;;;;;5051027;28;20452;-69
2024/04/04 04:24:10;;;;;;;6.90;1.00;;;11.30;99.90;;;;;;5050517;28;20452;-68
2024/04/04 04:26:36;;;;;;;6.60;0.90;;;11.30;99.90;;;;;;5050307;28;20452;-69
2024/04/04 04:29:03;;;;;;;6.20;1.00;;;11.20;99.90;;;;;;5050814;28;20942;-69
2024/04/04 04:31:32;;;;;;;5.83;0.70;;;11.20;99.90;;;;;;5049880;28;20518;-70
2024/04/04 04:34:01;;;;;;;6.27;0.80;;;11.20;99.90;;;;;;5049991;28;20459;-69
2024/04/04 04:36:31;;;;;;;7.37;0.90;;;11.20;99.90;;;;;;5066976;28;20452;-69
2024/04/04 04:38:57;;;;;;;5.80;0.70;;;11.20;99.90;;;;;;5049819;28;20982;-69
2024/04/04 04:41:24;;;;;;;5.67;0.87;;;11.30;99.90;;;;;;5049156;28;20443;-70
2024/04/04 04:43:50;;;;;;;6.60;0.90;;;11.30;99.90;;;;;;5049412;28;20539;-69
2024/04/04 04:46:18;;;;;;;8.47;0.90;;;11.20;99.90;;;;;;5050050;28;20468;-70
2024/04/04 04:48:44;;;;;;;7.17;0.83;;;11.20;99.90;;;;;;5050050;28;20948;-69
2024/04/04 04:51:13;;;;;;;6.30;1.10;;;11.20;99.90;;;;;;5050122;28;20854;-69
2024/04/04 04:53:40;;;;;;;6.53;0.93;;;11.10;99.90;;;;;;5050026;28;20474;-72
2024/04/04 04:56:07;;;;;;;6.40;1.10;;;11.00;99.90;;;;;;5049628;28;20847;-68
2024/04/04 04:58:33;;;;;;;6.87;1.23;;;10.90;99.90;;;;;;5044640;28;20443;-70
2024/04/04 05:01:00;;;;;;;6.97;1.00;;;11.00;99.90;;;;;;5049262;28;20476;-70
2024/04/04 05:03:28;;;;;;;6.90;0.80;;;11.10;99.90;;;;;;5048205;28;20452;-70
2024/04/04 05:05:56;;;;;;;6.50;0.80;;;11.00;99.90;;;;;;5048359;28;20463;-70
2024/04/04 05:08:23;;;;;;;7.63;0.87;;;11.10;99.90;;;;;;5049934;28;20443;-70
2024/04/04 05:10:51;;;;;;;8.33;1.10;;;11.20;99.90;;;;;;5049475;28;20432;-71
2024/04/04 05:13:18;;;;;;;6.90;0.80;;;11.20;99.90;;;;;;5049706;28;20472;-69
2024/04/04 05:15:47;;;;;;;6.60;0.90;;;11.20;99.90;;;;;;5048350;28;20467;-69
2024/04/04 05:18:14;;;;;;;8.13;1.00;;;11.10;99.90;;;;;;5049772;28;20966;-68
2024/04/04 05:20:42;;;;;;;6.43;0.73;;;11.10;99.90;;;;;;5047622;28;20479;-69
2024/04/04 05:23:09;;;;;;;6.40;0.77;;;11.10;99.90;;;;;;5049206;28;21320;-71
2024/04/04 05:25:36;;;;;;;7.03;0.93;;;11.10;99.90;;;;;;5047026;28;20471;-69
2024/04/04 05:28:04;;;;;;;6.00;0.80;;;11.10;99.90;;;;;;5049505;28;20448;-69
2024/04/04 05:30:31;;;;;;;7.03;1.00;;;11.20;99.90;;;;;;5049872;28;20445;-69
2024/04/04 05:33:01;;;;;;;5.77;0.83;;;11.30;99.90;;;;;;5049559;28;20445;-69
2024/04/04 05:35:27;;;;;;;7.30;0.90;;;11.40;99.90;;;;;;5049537;28;20524;-69
2024/04/04 05:37:54;;;;;;;5.80;0.80;;;11.40;99.90;;;;;;5050012;28;20442;-69
2024/04/04 05:40:20;;;;;;;7.10;1.10;;;11.40;99.90;;;;;;5049603;28;20473;-69
2024/04/04 05:42:48;;;;;;;7.07;1.23;;;11.50;99.90;;;;;;5048922;28;21139;-69
2024/04/04 05:45:15;;;;;;;7.07;1.10;;;11.50;99.90;;;;;;5049014;28;20481;-70
2024/04/04 05:47:41;;;;;;;10.37;1.03;;;11.50;99.90;;;;;;5044796;28;20449;-69
2024/04/04 05:50:09;;;;;;;6.73;1.07;;;11.60;99.90;;;;;;5049566;28;21133;-68
2024/04/04 05:52:36;;;;;;;9.30;0.93;;;11.70;99.90;;;;;;5049352;28;20476;-69
2024/04/04 05:55:02;;;;;;;7.63;1.13;;;11.70;99.90;;;;;;5048688;28;20512;-71
2024/04/04 05:57:30;;;;;;;7.03;1.40;;;11.70;99.90;;;;;;5048464;28;20849;-69
2024/04/04 05:59:57;;;;;;;6.03;1.03;;;11.80;99.90;;;;;;5049099;28;20493;-68
2024/04/04 06:02:24;;;;;;;8.93;1.40;;;11.80;99.90;;;;;;5046463;28;20452;-70
2024/04/04 06:04:50;;;;;;;7.43;1.10;;;11.80;99.90;;;;;;5049377;28;20470;-70
2024/04/04 06:07:20;;;;;;;7.57;1.10;;;11.90;99.90;;;;;;5049028;28;20956;-68
2024/04/04 06:09:46;;;;;;;7.60;1.03;;;12.00;99.90;;;;;;5049408;28;20452;-68
2024/04/04 06:12:13;;;;;;;7.80;1.27;;;12.00;99.90;;;;;;5049754;28;20497;-69
2024/04/04 06:14:39;;;;;;;7.83;1.57;;;12.30;99.90;;;;;;5045136;28;20483;-68
2024/04/04 06:17:07;;;;;;;10.60;1.60;;;12.50;99.90;;;;;;5048243;28;21031;-68
2024/04/04 06:19:33;;;;;;;7.17;1.20;;;12.70;99.90;;;;;;5049987;28;20502;-68
2024/04/04 06:22:00;;;;;;;8.43;1.27;;;13.00;99.90;;;;;;5049168;28;20507;-68
2024/04/04 06:24:27;;;;;;;9.07;1.80;;;13.20;99.90;;;;;;5048855;28;20496;-70
2024/04/04 06:26:54;;;;;;;8.60;1.17;;;13.40;99.90;;;;;;5049356;28;20822;-69
2024/04/04 06:29:23;;;;;;;8.23;1.47;;;13.50;99.90;;;;;;5045588;28;20791;-69
2024/04/04 06:31:50;;;;;;;7.23;1.03;;;13.70;99.90;;;;;;5049776;28;20475;-70
2024/04/04 06:34:19;;;;;;;8.73;1.10;;;13.90;99.90;;;;;;5051780;28;20474;-70
2024/04/04 06:36:46;;;;;;;6.30;1.00;;;13.90;99.90;;;;;;5049319;28;20489;-69
2024/04/04 06:39:15;;;;;;;10.00;1.80;;;13.90;99.90;;;;;;5053267;28;20447;-68
2024/04/04 06:41:42;;;;;;;11.17;1.40;;;14.00;99.90;;;;;;5053062;28;20447;-69
2024/04/04 06:44:09;;;;;;;9.77;1.37;;;14.00;99.90;;;;;;5052417;28;20455;-69
2024/04/04 06:46:36;;;;;;;10.43;1.20;;;14.00;99.90;;;;;;5047095;28;20632;-68
2024/04/04 06:49:02;;;;;;;8.53;1.70;;;13.90;99.90;;;;;;5051381;28;20459;-68
2024/04/04 06:51:30;;;;;;;11.23;1.10;;;13.90;99.90;;;;;;5050853;28;20450;-68
2024/04/04 06:53:56;;;;;;;11.57;1.33;;;13.90;99.90;;;;;;5050088;28;20454;-68
2024/04/04 06:56:23;;;;;;;8.37;1.23;;;14.00;99.90;;;;;;5045342;28;20442;-69
2024/04/04 06:58:49;;;;;;;9.10;1.60;;;13.90;99.90;;;;;;5050630;28;20454;-68
2024/04/04 07:01:17;;;;;;;9.37;1.10;;;13.90;99.90;;;;;;5050344;28;20467;-67
2024/04/04 07:03:43;;;;;;;10.43;1.57;;;13.80;99.90;;;;;;5050561;28;20444;-70
2024/04/04 07:06:10;;;;;;;8.43;1.50;;;13.80;99.90;;;;;;5049836;28;20464;-66
2024/04/04 07:08:38;;;;;;;9.70;1.53;;;13.90;99.90;;;;;;5050713;28;20439;-69
2024/04/04 07:11:06;;;;;;;8.90;1.50;;;14.10;99.90;;;;;;5050770;28;20448;-68
2024/04/04 07:13:33;;;;;;;11.40;1.90;;;14.30;99.90;;;;;;5050242;28;20438;-66
2024/04/04 07:16:05;;;;;;;9.33;1.60;;;14.60;99.90;;;;;;5050127;28;20539;-69
2024/04/04 07:18:31;;;;;;;8.63;1.50;;;14.90;99.90;;;;;;5051343;28;20952;-68
2024/04/04 07:20:58;;;;;;;9.57;1.60;;;15.20;99.90;;;;;;5050350;28;20601;-69
2024/04/04 07:23:24;;;;;;;6.70;1.10;;;15.40;99.90;;;;;;5050952;28;20933;-68
2024/04/04 07:25:54;;;;;;;9.70;1.37;;;15.50;99.90;;;;;;5050555;28;20473;-68
2024/04/04 07:28:20;;;;;;;12.47;2.03;;;15.50;99.90;;;;;;5050714;28;20444;-67
2024/04/04 07:30:48;;;;;;;11.20;1.40;;;15.50;99.90;;;;;;5051283;28;20451;-67
2024/04/04 07:33:14;;;;;;;11.00;1.37;;;15.60;99.90;;;;;;5043626;28;20448;-67
2024/04/04 07:35:42;;;;;;;8.57;1.37;;;15.60;99.90;;;;;;5050715;28;20469;-69
2024/04/04 07:38:08;;;;;;;9.20;1.60;;;15.40;99.90;;;;;;5050978;28;20466;-68
2024/04/04 07:40:36;;;;;;;10.83;1.50;;;15.20;99.90;;;;;;5051219;28;20476;-68
2024/04/04 07:43:04;;;;;;;10.70;1.60;;;15.10;99.90;;;;;;5051180;28;20439;-68
2024/04/04 07:45:31;;;;;;;10.33;1.80;;;15.10;99.90;;;;;;5050113;28;20475;-67
2024/04/04 07:47:57;;;;;;;9.83;1.50;;;14.90;99.90;;;;;;5051610;28;20493;-69
2024/04/04 07:50:25;;;;;;;15.27;2.10;;;14.70;99.90;;;;;;5067591;28;20496;-70
2024/04/04 07:52:51;;;;;;;9.47;1.60;;;14.40;99.90;;;;;;5050378;28;20439;-68
2024/04/04 07:55:18;;;;;;;10.50;1.63;;;14.10;99.90;;;;;;5067178;28;21035;-68
2024/04/04 07:57:45;;;;;;;9.57;2.40;;;13.90;99.90;;;;;;5051699;28;20501;-70
2024/04/04 08:00:14;;;;;;;10.20;1.37;;;13.90;99.90;;;;;;5067783;28;20484;-68
2024/04/04 08:02:40;;;;;;;10.70;1.63;;;14.00;99.90;;;;;;5050148;28;20430;-68
2024/04/04 08:05:08;;;;;;;9.40;1.90;;;14.10;99.90;;;;;;5066474;28;20224;-72
2024/04/04 08:07:36;;;;;;;10.80;1.60;;;14.30;99.90;;;;;;5051090;28;20441;-67
2024/04/04 08:10:05;;;;;;;10.03;1.47;;;14.50;99.90;;;;;;5051508;28;20796;-67
2024/04/04 08:12:34;;;;;;;13.43;2.20;;;14.60;99.90;;;;;;5067943;28;20449;-66
2024/04/04 08:15:03;;;;;;;8.07;1.47;;;14.70;99.90;;;;;;5048630;28;20467;-70
2024/04/04 08:17:31;;;;;;;10.63;1.50;;;14.80;99.90;;;;;;5067721;28;20873;-68
2024/04/04 08:19:58;;;;;;;8.63;1.57;;;14.80;99.90;;;;;;5051234;28;20473;-68
2024/04/04 08:22:24;;;;;;;9.87;1.53;;;14.70;99.90;;;;;;5067033;28;21132;-68
2024/04/04 08:24:51;;;;;;;10.27;1.50;;;14.60;99.90;;;;;;5066387;28;21066;-68
2024/04/04 08:27:20;;;;;;;7.83;0.97;;;14.60;99.90;;;;;;5050836;28;20435;-67
2024/04/04 08:29:48;;;;;;;13.63;1.57;;;14.50;99.90;;;;;;5067663;28;20453;-69
2024/04/04 08:32:14;;;;;;;8.67;1.60;;;14.60;99.90;;;;;;5049634;28;20446;-67
2024/04/04 08:34:43;;;;;;;14.00;1.83;;;14.70;99.90;;;;;;5050599;28;20459;-67
2024/04/04 08:37:09;;;;;;;9.27;1.20;;;14.90;99.90;;;;;;5050264;28;20457;-68
2024/04/04 08:39:37;;;;;;;8.07;1.40;;;14.90;99.90;;;;;;5045902;28;20449;-70
2024/04/04 08:42:04;;;;;;;10.20;1.40;;;14.90;99.90;;;;;;5051912;28;20475;-69
2024/04/04 08:44:32;;;;;;;7.50;1.40;;;14.90;99.90;;;;;;5051114;28;20471;-68
2024/04/04 08:47:00;;;;;;;8.90;1.20;;;14.90;99.90;;;;;;5045115;28;20451;-68
2024/04/04 08:49:27;;;;;;;8.17;1.30;;;14.90;99.90;;;;;;5050006;28;20469;-69
2024/04/04 08:51:56;;;;;;;10.27;1.97;;;14.80;99.90;;;;;;5048837;28;20508;-69
2024/04/04 08:54:24;;;;;;;9.57;1.43;;;14.70;99.90;;;;;;5050193;28;20529;-70
2024/04/04 08:56:50;;;;;;;8.40;1.60;;;14.50;99.90;;;;;;5053906;28;20516;-69
2024/04/04 08:59:17;;;;;;;11.27;1.73;;;14.30;99.90;;;;;;5056529;28;20457;-71
2024/04/04 09:01:43;;;;;;;11.40;1.40;;;14.30;99.90;;;;;;5052085;28;20483;-68
2024/04/04 09:04:11;;;;;;;11.27;1.33;;;14.30;99.90;;;;;;5056612;28;20512;-70
2024/04/04 09:06:37;;;;;;;8.67;1.23;;;14.30;99.90;;;;;;5065369;28;20446;-68
2024/04/04 09:09:08;;;;;;;8.83;1.33;;;14.20;99.90;;;;;;5055326;28;20991;-68
2024/04/04 09:11:34;;;;;;;9.73;1.53;;;14.30;99.90;;;;;;5054914;28;20947;-68
2024/04/04 09:14:05;;;;;;;9.67;1.70;;;14.30;99.90;;;;;;5053435;28;20940;-69
2024/04/04 09:16:32;;;;;;;11.93;1.50;;;14.30;99.90;;;;;;5053942;28;20443;-68
2024/04/04 09:19:10;;;;;;;8.60;1.20;;;14.40;99.90;;;;;;5052058;28;21130;-71
2024/04/04 09:21:36;;;;;;;9.07;1.17;;;14.40;99.90;;;;;;5049414;28;20485;-71
2024/04/04 09:24:06;;;;;;;9.17;1.70;;;14.50;99.90;;;;;;5049255;28;20511;-70
2024/04/04 09:26:32;;;;;;;11.60;1.73;;;14.50;99.90;;;;;;5049853;28;20991;-69
2024/04/04 09:28:59;;;;;;;7.80;1.37;;;14.60;99.90;;;;;;5039389;28;20440;-69
2024/04/04 09:31:28;;;;;;;8.90;1.50;;;14.60;99.90;;;;;;5044551;28;20449;-70
2024/04/04 09:33:57;;;;;;;7.17;1.07;;;14.60;99.90;;;;;;5045926;28;20446;-71
2024/04/04 09:36:25;;;;;;;8.27;1.40;;;14.50;99.90;;;;;;5046119;28;20459;-69
2024/04/04 09:38:53;;;;;;;8.20;1.20;;;14.50;99.90;;;;;;5046400;28;20448;-70
2024/04/04 09:41:21;;;;;;;8.63;1.20;;;14.40;99.90;;;;;;5042887;28;20486;-71
2024/04/04 09:43:50;;;;;;;8.93;2.43;;;14.30;99.90;;;;;;5045898;28;20451;-71
2024/04/04 09:46:17;;;;;;;9.93;1.20;;;14.30;99.90;;;;;;5045493;28;20471;-71
2024/04/04 09:48:46;;;;;;;8.03;1.03;;;14.40;99.90;;;;;;5046022;28;20463;-68
2024/04/04 09:51:12;;;;;;;7.53;1.30;;;14.50;99.90;;;;;;5045284;28;21146;-69
2024/04/04 09:53:40;;;;;;;11.33;1.50;;;14.70;99.90;;;;;;5045327;28;20470;-69
2024/04/04 09:56:07;;;;;;;12.13;1.60;;;14.70;99.90;;;;;;5044489;28;20464;-69
2024/04/04 09:58:37;;;;;;;10.00;1.10;;;14.60;99.90;;;;;;5045144;28;20959;-70
2024/04/04 10:01:17;;;;;;;8.73;1.20;;;14.40;99.90;;;;;;5041817;28;20865;-68
2024/04/04 10:03:48;;;;;;;7.87;1.27;;;14.40;99.90;;;;;;5044460;28;20439;-69
2024/04/04 10:06:35;;;;;;;8.60;1.30;;;14.40;99.90;;;;;;5041432;28;20460;-70
2024/04/04 10:09:15;;;;;;;11.63;1.60;;;14.30;99.90;;;;;;5064001;28;20453;-70
2024/04/04 10:11:41;;;;;;;8.27;1.60;;;14.00;99.90;;;;;;5048833;28;20447;-69
2024/04/04 10:14:15;;;;;;;9.90;1.50;;;13.80;99.90;;;;;;5048416;28;20466;-70
2024/04/04 10:16:44;;;;;;;7.70;1.63;;;13.60;99.90;;;;;;5047748;28;20450;-69
2024/04/04 10:19:17;;;;;;;7.60;1.10;;;13.50;99.90;;;;;;5048037;28;20451;-68
2024/04/04 10:21:43;;;;;;;9.27;1.50;;;13.50;99.90;;;;;;5047666;28;20494;-69
2024/04/04 10:24:20;;;;;;;10.23;1.93;;;13.50;99.90;;;;;;5063507;28;20447;-69
2024/04/04 10:26:54;;;;;;;9.10;1.40;;;13.60;99.90;;;;;;5042738;28;20444;-69
2024/04/04 10:29:23;;;;;;;7.70;1.70;;;13.80;99.90;;;;;;5064165;28;20455;-70
2024/04/04 10:31:49;;;;;;;8.37;1.40;;;14.00;99.90;;;;;;5046236;28;20452;-68
2024/04/04 10:34:16;;;;;;;9.63;2.43;;;14.10;99.90;;;;;;5046722;28;20447;-68
2024/04/04 10:36:44;;;;;;;8.43;1.50;;;14.10;99.90;;;;;;5047235;28;20831;-69
2024/04/04 10:39:13;;;;;;;8.33;1.37;;;14.10;99.90;;;;;;5059628;28;20461;-70
2024/04/04 10:41:41;;;;;;;7.23;1.30;;;14.10;99.90;;;;;;5049026;28;20715;-68
2024/04/04 10:44:13;;;;;;;10.93;1.70;;;14.20;99.90;;;;;;5046955;28;21026;-69
2024/04/04 10:46:46;;;;;;;10.20;1.60;;;14.30;99.90;;;;;;5047195;28;20453;-69
2024/04/04 10:49:14;;;;;;;8.90;1.20;;;14.40;99.90;;;;;;5048395;28;20443;-69
2024/04/04 10:51:45;;;;;;;7.00;1.40;;;14.50;99.90;;;;;;5065079;28;20481;-70
2024/04/04 10:54:13;;;;;;;13.00;1.80;;;14.70;99.90;;;;;;5048235;28;20435;-68
2024/04/04 10:56:39;;;;;;;6.40;1.10;;;14.90;99.90;;;;;;5047557;28;20462;-68
2024/04/04 10:59:06;;;;;;;10.77;1.70;;;15.10;99.90;;;;;;5046978;28;20447;-69
2024/04/04 11:01:32;;;;;;;8.80;1.10;;;15.20;99.90;;;;;;5049174;28;20901;-68
2024/04/04 11:04:01;;;;;;;8.10;1.90;;;15.20;99.90;;;;;;5048086;28;20471;-69
2024/04/04 11:06:28;;;;;;;6.73;1.23;;;15.20;99.90;;;;;;5047753;28;20448;-67
2024/04/04 11:08:56;;;;;;;8.57;1.20;;;15.30;99.90;;;;;;5047319;28;20448;-67
2024/04/04 11:11:23;;;;;;;7.90;1.20;;;15.20;99.90;;;;;;5048476;28;21054;-67
2024/04/04 11:13:51;;;;;;;7.00;1.07;;;15.20;99.90;;;;;;5047714;28;20498;-67
2024/04/04 11:16:19;;;;;;;8.13;0.93;;;15.20;99.90;;;;;;5048176;28;20523;-66
2024/04/04 11:18:46;;;;;;;9.03;1.43;;;15.20;99.90;;;;;;5047620;28;20446;-67
2024/04/04 11:21:13;;;;;;;11.67;3.80;;;15.20;99.90;;;;;;5058830;28;20471;-66
2024/04/04 11:23:40;;;;;;;10.03;1.47;;;15.10;99.90;;;;;;5047907;28;20457;-68
2024/04/04 11:26:08;;;;;;;7.10;1.40;;;15.20;99.90;;;;;;5047098;28;21279;-68
2024/04/04 11:28:35;;;;;;;8.23;1.10;;;15.40;99.90;;;;;;5047849;28;20946;-68
2024/04/04 11:31:02;;;;;;;10.30;1.40;;;15.30;99.90;;;;;;5047729;28;20451;-66
2024/04/04 11:33:29;;;;;;;7.07;1.10;;;15.10;99.90;;;;;;5059231;28;20944;-69
2024/04/04 11:35:55;;;;;;;7.60;1.10;;;15.00;99.90;;;;;;5045556;28;20478;-69
2024/04/04 11:38:24;;;;;;;8.73;1.43;;;14.90;99.90;;;;;;5064186;28;20529;-69
2024/04/04 11:40:50;;;;;;;8.40;1.20;;;14.90;99.90;;;;;;5047357;28;20476;-71
2024/04/04 11:43:17;;;;;;;10.90;1.53;;;14.80;99.90;;;;;;5047738;28;20443;-68
2024/04/04 11:45:43;;;;;;;11.23;1.47;;;14.60;99.90;;;;;;5058886;28;20980;-69
2024/04/04 11:48:10;;;;;;;7.43;0.97;;;14.60;99.90;;;;;;5046505;28;20439;-69
2024/04/04 11:50:37;;;;;;;7.53;1.10;;;14.60;99.90;;;;;;5047083;28;20505;-69
2024/04/04 11:53:05;;;;;;;7.50;1.27;;;14.70;99.90;;;;;;5063934;28;20446;-69
2024/04/04 11:55:32;;;;;;;7.70;1.40;;;14.70;99.90;;;;;;5042724;28;20848;-69
2024/04/04 11:57:59;;;;;;;8.00;1.20;;;14.70;99.90;;;;;;5041586;28;20448;-68
2024/04/04 12:00:25;;;;;;;6.83;1.17;;;14.90;99.90;;;;;;5061430;28;20450;-68
2024/04/04 12:02:52;;;;;;;9.23;1.40;;;15.20;99.90;;;;;;5046529;28;20455;-68
2024/04/04 12:05:18;;;;;;;7.23;1.20;;;15.40;99.90;;;;;;5061635;28;20463;-69
2024/04/04 12:07:45;;;;;;;8.40;1.00;;;15.70;99.90;;;;;;5045321;28;20468;-66
2024/04/04 12:10:14;;;;;;;8.63;1.70;;;15.90;99.90;;;;;;5046428;28;20451;-68
2024/04/04 12:12:42;;;;;;;7.43;1.20;;;16.20;99.90;;;;;;5046071;28;20457;-67
2024/04/04 12:15:08;;;;;;;7.30;1.23;;;16.30;99.90;;;;;;5045732;28;20476;-67
2024/04/04 12:17:38;;;;;;;8.70;1.30;;;16.20;99.90;;;;;;5047087;28;20512;-66
2024/04/04 12:20:08;;;;;;;8.17;1.23;;;16.00;99.90;;;;;;5044229;28;20444;-68
2024/04/04 12:22:35;;;;;;;8.77;2.20;;;16.00;99.90;;;;;;5043533;28;20478;-68
2024/04/04 12:25:02;;;;;;;6.80;1.13;;;16.20;99.90;;;;;;5046206;28;20468;-67
2024/04/04 12:27:28;;;;;;;9.03;1.30;;;16.00;99.90;;;;;;5062971;28;20448;-67
2024/04/04 12:29:57;;;;;;;8.17;1.27;;;15.90;99.90;;;;;;5046250;28;20435;-65
2024/04/04 12:32:23;;;;;;;7.20;0.90;;;15.90;99.90;;;;;;5046088;28;20451;-67
2024/04/04 12:34:49;;;;;;;8.20;1.10;;;15.90;99.90;;;;;;5045546;28;20465;-68
2024/04/04 12:37:17;;;;;;;6.97;1.07;;;15.80;99.90;;;;;;5046685;28;20447;-67
2024/04/04 12:39:43;;;;;;;7.10;1.00;;;15.90;99.90;;;;;;5046496;28;20454;-67
2024/04/04 12:42:10;;;;;;;7.20;0.60;;;16.00;99.90;;;;;;5046063;28;20477;-68
2024/04/04 12:44:36;;;;;;;6.63;0.80;;;15.90;99.90;;;;;;5046403;28;20486;-68
2024/04/04 12:47:05;;;;;;;6.70;0.70;;;15.70;99.90;;;;;;5046723;28;20445;-68